sensor_id;sensor_type;location;lat;lon;timestamp;P1;durP1;ratioP1;P2;durP2;ratioP2
13234;SDS011;6683;48.506;9.050;2024-01-30T00:01:41;5.40;;;4.03;;
13234;SDS011;6683;48.506;9.050;2024-01-30T00:04:43;5.70;;;4.40;;
13234;SDS011;6683;48.506;9.050;2024-01-30T00:07:45;6.57;;;4.37;;
13234;SDS011;6683;48.506;9.050;2024-01-30T00:10:47;6.70;;;4.30;;
13234;SDS011;6683;48.506;9.050;2024-01-30T00:13:50;7.83;;;4.73;;
13234;SDS011;6683;48.506;9.050;2024-01-30T00:16:52;6.47;;;4.07;;
13234;SDS011;6683;48.506;9.050;2024-01-30T00:19:54;5.20;;;4.00;;
13234;SDS011;6683;48.506;9.050;2024-01-30T00:22:56;4.97;;;3.97;;
13234;SDS011;6683;48.506;9.050;2024-01-30T00:25:58;6.27;;;4.10;;
13234;SDS011;6683;48.506;9.050;2024-01-30T00:29:02;5.37;;;4.10;;
13234;SDS011;6683;48.506;9.050;2024-01-30T00:32:04;4.63;;;4.13;;
13234;SDS011;6683;48.506;9.050;2024-01-30T00:35:07;7.90;;;4.40;;
13234;SDS011;6683;48.506;9.050;2024-01-30T00:38:10;5.17;;;4.13;;
13234;SDS011;6683;48.506;9.050;2024-01-30T00:41:12;5.73;;;3.90;;
13234;SDS011;6683;48.506;9.050;2024-01-30T00:44:17;4.97;;;4.30;;
13234;SDS011;6683;48.506;9.050;2024-01-30T00:47:19;5.20;;;3.83;;
13234;SDS011;6683;48.506;9.050;2024-01-30T00:50:21;4.77;;;3.80;;
13234;SDS011;6683;48.506;9.050;2024-01-30T00:53:23;5.57;;;4.00;;
13234;SDS011;6683;48.506;9.050;2024-01-30T00:56:25;4.67;;;3.87;;
13234;SDS011;6683;48.506;9.050;2024-01-30T00:59:28;5.03;;;3.97;;
13234;SDS011;6683;48.506;9.050;2024-01-30T01:02:30;4.93;;;3.73;;
13234;SDS011;6683;48.506;9.050;2024-01-30T01:05:32;5.03;;;3.77;;
13234;SDS011;6683;48.506;9.050;2024-01-30T01:08:34;4.67;;;3.57;;
13234;SDS011;6683;48.506;9.050;2024-01-30T01:11:37;5.27;;;3.80;;
13234;SDS011;6683;48.506;9.050;2024-01-30T01:14:40;6.37;;;4.57;;
13234;SDS011;6683;48.506;9.050;2024-01-30T01:17:42;4.87;;;4.00;;
13234;SDS011;6683;48.506;9.050;2024-01-30T01:20:44;5.37;;;3.73;;
13234;SDS011;6683;48.506;9.050;2024-01-30T01:23:46;5.17;;;4.00;;
13234;SDS011;6683;48.506;9.050;2024-01-30T01:26:48;5.17;;;3.90;;
13234;SDS011;6683;48.506;9.050;2024-01-30T01:29:51;5.17;;;4.30;;
13234;SDS011;6683;48.506;9.050;2024-01-30T01:32:54;4.67;;;4.03;;
13234;SDS011;6683;48.506;9.050;2024-01-30T01:35:57;4.77;;;3.67;;
13234;SDS011;6683;48.506;9.050;2024-01-30T01:38:59;4.10;;;3.57;;
13234;SDS011;6683;48.506;9.050;2024-01-30T01:42:01;3.70;;;3.33;;
13234;SDS011;6683;48.506;9.050;2024-01-30T01:45:06;5.33;;;4.10;;
13234;SDS011;6683;48.506;9.050;2024-01-30T01:48:09;4.93;;;3.70;;
13234;SDS011;6683;48.506;9.050;2024-01-30T01:51:12;6.13;;;3.80;;
13234;SDS011;6683;48.506;9.050;2024-01-30T01:54:15;3.83;;;3.43;;
13234;SDS011;6683;48.506;9.050;2024-01-30T01:57:17;4.57;;;3.77;;
13234;SDS011;6683;48.506;9.050;2024-01-30T02:00:21;5.50;;;4.10;;
13234;SDS011;6683;48.506;9.050;2024-01-30T02:03:24;5.30;;;3.60;;
13234;SDS011;6683;48.506;9.050;2024-01-30T02:06:26;5.23;;;3.77;;
13234;SDS011;6683;48.506;9.050;2024-01-30T02:09:29;5.07;;;3.73;;
13234;SDS011;6683;48.506;9.050;2024-01-30T02:12:31;4.33;;;3.50;;
13234;SDS011;6683;48.506;9.050;2024-01-30T02:15:34;5.00;;;3.50;;
13234;SDS011;6683;48.506;9.050;2024-01-30T02:18:36;5.40;;;3.73;;
13234;SDS011;6683;48.506;9.050;2024-01-30T02:21:44;4.73;;;3.60;;
13234;SDS011;6683;48.506;9.050;2024-01-30T02:24:47;4.07;;;3.67;;
13234;SDS011;6683;48.506;9.050;2024-01-30T02:27:49;6.30;;;4.07;;
13234;SDS011;6683;48.506;9.050;2024-01-30T02:30:51;4.97;;;4.00;;
13234;SDS011;6683;48.506;9.050;2024-01-30T02:33:53;4.57;;;3.60;;
13234;SDS011;6683;48.506;9.050;2024-01-30T02:36:57;4.13;;;3.63;;
13234;SDS011;6683;48.506;9.050;2024-01-30T02:39:59;4.60;;;3.47;;
13234;SDS011;6683;48.506;9.050;2024-01-30T02:43:01;4.30;;;3.33;;
13234;SDS011;6683;48.506;9.050;2024-01-30T02:46:04;4.33;;;3.80;;
13234;SDS011;6683;48.506;9.050;2024-01-30T02:49:06;4.93;;;3.60;;
13234;SDS011;6683;48.506;9.050;2024-01-30T02:52:10;4.80;;;3.70;;
13234;SDS011;6683;48.506;9.050;2024-01-30T02:55:12;4.70;;;3.77;;
13234;SDS011;6683;48.506;9.050;2024-01-30T02:58:14;4.57;;;3.70;;
13234;SDS011;6683;48.506;9.050;2024-01-30T03:01:16;3.87;;;3.47;;
13234;SDS011;6683;48.506;9.050;2024-01-30T03:04:18;5.40;;;3.63;;
13234;SDS011;6683;48.506;9.050;2024-01-30T03:07:21;5.50;;;3.47;;
13234;SDS011;6683;48.506;9.050;2024-01-30T03:10:23;4.53;;;3.47;;
13234;SDS011;6683;48.506;9.050;2024-01-30T03:13:25;5.77;;;3.70;;
13234;SDS011;6683;48.506;9.050;2024-01-30T03:16:27;4.07;;;3.67;;
13234;SDS011;6683;48.506;9.050;2024-01-30T03:19:30;6.00;;;4.00;;
13234;SDS011;6683;48.506;9.050;2024-01-30T03:22:33;5.17;;;3.43;;
13234;SDS011;6683;48.506;9.050;2024-01-30T03:25:35;3.80;;;3.40;;
13234;SDS011;6683;48.506;9.050;2024-01-30T03:28:37;3.53;;;2.73;;
13234;SDS011;6683;48.506;9.050;2024-01-30T03:31:39;4.17;;;3.20;;
13234;SDS011;6683;48.506;9.050;2024-01-30T03:34:42;4.03;;;3.30;;
13234;SDS011;6683;48.506;9.050;2024-01-30T03:37:45;5.00;;;3.43;;
13234;SDS011;6683;48.506;9.050;2024-01-30T03:40:47;4.27;;;3.23;;
13234;SDS011;6683;48.506;9.050;2024-01-30T03:43:49;5.53;;;3.77;;
13234;SDS011;6683;48.506;9.050;2024-01-30T03:46:52;3.77;;;3.37;;
13234;SDS011;6683;48.506;9.050;2024-01-30T03:49:54;5.70;;;3.20;;
13234;SDS011;6683;48.506;9.050;2024-01-30T03:52:57;4.10;;;3.30;;
13234;SDS011;6683;48.506;9.050;2024-01-30T03:55:59;5.03;;;3.50;;
13234;SDS011;6683;48.506;9.050;2024-01-30T03:59:01;5.40;;;3.37;;
13234;SDS011;6683;48.506;9.050;2024-01-30T04:02:03;3.87;;;2.93;;
13234;SDS011;6683;48.506;9.050;2024-01-30T04:05:06;3.97;;;3.13;;
13234;SDS011;6683;48.506;9.050;2024-01-30T04:08:10;4.33;;;3.30;;
13234;SDS011;6683;48.506;9.050;2024-01-30T04:11:12;3.97;;;3.40;;
13234;SDS011;6683;48.506;9.050;2024-01-30T04:14:14;4.17;;;3.27;;
13234;SDS011;6683;48.506;9.050;2024-01-30T04:17:16;5.13;;;3.80;;
13234;SDS011;6683;48.506;9.050;2024-01-30T04:20:18;4.33;;;3.40;;
13234;SDS011;6683;48.506;9.050;2024-01-30T04:23:22;4.77;;;3.70;;
13234;SDS011;6683;48.506;9.050;2024-01-30T04:26:24;4.07;;;3.30;;
13234;SDS011;6683;48.506;9.050;2024-01-30T04:29:26;5.47;;;3.60;;
13234;SDS011;6683;48.506;9.050;2024-01-30T04:32:28;5.43;;;3.90;;
13234;SDS011;6683;48.506;9.050;2024-01-30T04:35:30;4.00;;;3.00;;
13234;SDS011;6683;48.506;9.050;2024-01-30T04:38:33;5.97;;;3.77;;
13234;SDS011;6683;48.506;9.050;2024-01-30T04:41:35;4.57;;;3.40;;
13234;SDS011;6683;48.506;9.050;2024-01-30T04:44:37;5.17;;;3.97;;
13234;SDS011;6683;48.506;9.050;2024-01-30T04:47:39;4.33;;;3.57;;
13234;SDS011;6683;48.506;9.050;2024-01-30T04:50:41;3.73;;;3.17;;
13234;SDS011;6683;48.506;9.050;2024-01-30T04:53:45;5.77;;;3.20;;
13234;SDS011;6683;48.506;9.050;2024-01-30T04:56:47;4.43;;;3.20;;
13234;SDS011;6683;48.506;9.050;2024-01-30T04:59:49;3.97;;;3.50;;
13234;SDS011;6683;48.506;9.050;2024-01-30T05:02:51;4.00;;;3.33;;
13234;SDS011;6683;48.506;9.050;2024-01-30T05:05:53;3.87;;;3.10;;
13234;SDS011;6683;48.506;9.050;2024-01-30T05:08:57;5.13;;;3.10;;
13234;SDS011;6683;48.506;9.050;2024-01-30T05:11:59;3.47;;;2.97;;
13234;SDS011;6683;48.506;9.050;2024-01-30T05:15:01;3.73;;;3.10;;
13234;SDS011;6683;48.506;9.050;2024-01-30T05:18:03;3.80;;;3.20;;
13234;SDS011;6683;48.506;9.050;2024-01-30T05:21:06;4.27;;;3.03;;
13234;SDS011;6683;48.506;9.050;2024-01-30T05:24:09;4.03;;;3.10;;
13234;SDS011;6683;48.506;9.050;2024-01-30T05:27:11;3.97;;;3.00;;
13234;SDS011;6683;48.506;9.050;2024-01-30T05:30:14;5.53;;;3.37;;
13234;SDS011;6683;48.506;9.050;2024-01-30T05:33:16;4.33;;;3.20;;
13234;SDS011;6683;48.506;9.050;2024-01-30T05:36:18;6.30;;;3.20;;
13234;SDS011;6683;48.506;9.050;2024-01-30T05:39:23;4.17;;;3.47;;
13234;SDS011;6683;48.506;9.050;2024-01-30T05:42:25;4.07;;;3.43;;
13234;SDS011;6683;48.506;9.050;2024-01-30T05:45:28;4.47;;;3.13;;
13234;SDS011;6683;48.506;9.050;2024-01-30T05:48:30;5.13;;;3.40;;
13234;SDS011;6683;48.506;9.050;2024-01-30T05:51:32;5.70;;;3.53;;
13234;SDS011;6683;48.506;9.050;2024-01-30T05:54:35;4.87;;;3.33;;
13234;SDS011;6683;48.506;9.050;2024-01-30T05:57:37;5.30;;;4.17;;
13234;SDS011;6683;48.506;9.050;2024-01-30T06:00:40;4.63;;;3.43;;
13234;SDS011;6683;48.506;9.050;2024-01-30T06:03:42;3.97;;;3.13;;
13234;SDS011;6683;48.506;9.050;2024-01-30T06:06:44;5.17;;;3.73;;
13234;SDS011;6683;48.506;9.050;2024-01-30T06:09:47;4.07;;;3.27;;
13234;SDS011;6683;48.506;9.050;2024-01-30T06:12:50;4.00;;;3.27;;
13234;SDS011;6683;48.506;9.050;2024-01-30T06:15:52;4.80;;;4.03;;
13234;SDS011;6683;48.506;9.050;2024-01-30T06:18:54;5.47;;;3.97;;
13234;SDS011;6683;48.506;9.050;2024-01-30T06:21:57;5.00;;;3.83;;
13234;SDS011;6683;48.506;9.050;2024-01-30T06:25:00;3.67;;;3.20;;
13234;SDS011;6683;48.506;9.050;2024-01-30T06:28:03;3.67;;;3.30;;
13234;SDS011;6683;48.506;9.050;2024-01-30T06:31:06;4.57;;;3.40;;
13234;SDS011;6683;48.506;9.050;2024-01-30T06:34:08;4.07;;;3.20;;
13234;SDS011;6683;48.506;9.050;2024-01-30T06:37:11;3.80;;;3.17;;
13234;SDS011;6683;48.506;9.050;2024-01-30T06:40:15;4.10;;;3.50;;
13234;SDS011;6683;48.506;9.050;2024-01-30T06:43:17;3.77;;;3.23;;
13234;SDS011;6683;48.506;9.050;2024-01-30T06:46:19;5.17;;;3.70;;
13234;SDS011;6683;48.506;9.050;2024-01-30T06:49:21;4.57;;;3.70;;
13234;SDS011;6683;48.506;9.050;2024-01-30T06:52:23;4.50;;;3.70;;
13234;SDS011;6683;48.506;9.050;2024-01-30T06:55:26;5.97;;;4.07;;
13234;SDS011;6683;48.506;9.050;2024-01-30T06:58:28;7.00;;;3.73;;
13234;SDS011;6683;48.506;9.050;2024-01-30T07:01:30;5.43;;;4.20;;
13234;SDS011;6683;48.506;9.050;2024-01-30T07:04:33;5.53;;;3.77;;
13234;SDS011;6683;48.506;9.050;2024-01-30T07:07:35;6.87;;;4.03;;
13234;SDS011;6683;48.506;9.050;2024-01-30T07:10:38;6.87;;;4.77;;
13234;SDS011;6683;48.506;9.050;2024-01-30T07:13:40;4.83;;;3.73;;
13234;SDS011;6683;48.506;9.050;2024-01-30T07:16:42;4.73;;;3.93;;
13234;SDS011;6683;48.506;9.050;2024-01-30T07:19:44;4.97;;;4.10;;
13234;SDS011;6683;48.506;9.050;2024-01-30T07:22:46;6.50;;;4.07;;
13234;SDS011;6683;48.506;9.050;2024-01-30T07:25:50;9.23;;;5.40;;
13234;SDS011;6683;48.506;9.050;2024-01-30T07:28:52;6.87;;;5.70;;
13234;SDS011;6683;48.506;9.050;2024-01-30T07:31:54;8.60;;;6.00;;
13234;SDS011;6683;48.506;9.050;2024-01-30T07:34:56;8.47;;;5.73;;
13234;SDS011;6683;48.506;9.050;2024-01-30T07:37:58;9.63;;;6.63;;
13234;SDS011;6683;48.506;9.050;2024-01-30T07:41:01;8.53;;;6.77;;
13234;SDS011;6683;48.506;9.050;2024-01-30T07:44:03;10.13;;;7.40;;
13234;SDS011;6683;48.506;9.050;2024-01-30T07:47:05;9.03;;;7.17;;
13234;SDS011;6683;48.506;9.050;2024-01-30T07:50:08;9.03;;;7.70;;
13234;SDS011;6683;48.506;9.050;2024-01-30T07:53:11;10.27;;;7.47;;
13234;SDS011;6683;48.506;9.050;2024-01-30T07:56:14;10.80;;;7.73;;
13234;SDS011;6683;48.506;9.050;2024-01-30T07:59:17;9.47;;;6.97;;
13234;SDS011;6683;48.506;9.050;2024-01-30T08:02:21;8.63;;;6.30;;
13234;SDS011;6683;48.506;9.050;2024-01-30T08:05:23;8.20;;;6.53;;
13234;SDS011;6683;48.506;9.050;2024-01-30T08:08:26;7.57;;;6.10;;
13234;SDS011;6683;48.506;9.050;2024-01-30T08:11:29;8.03;;;5.63;;
13234;SDS011;6683;48.506;9.050;2024-01-30T08:14:31;7.37;;;5.13;;
13234;SDS011;6683;48.506;9.050;2024-01-30T08:17:33;8.13;;;5.23;;
13234;SDS011;6683;48.506;9.050;2024-01-30T08:20:35;5.80;;;5.10;;
13234;SDS011;6683;48.506;9.050;2024-01-30T08:23:38;5.33;;;4.70;;
13234;SDS011;6683;48.506;9.050;2024-01-30T08:26:41;6.10;;;4.53;;
13234;SDS011;6683;48.506;9.050;2024-01-30T08:29:43;6.13;;;4.80;;
13234;SDS011;6683;48.506;9.050;2024-01-30T08:32:45;4.87;;;4.33;;
13234;SDS011;6683;48.506;9.050;2024-01-30T08:35:47;4.87;;;4.20;;
13234;SDS011;6683;48.506;9.050;2024-01-30T08:38:49;5.97;;;4.67;;
13234;SDS011;6683;48.506;9.050;2024-01-30T08:41:53;5.43;;;4.23;;
13234;SDS011;6683;48.506;9.050;2024-01-30T08:44:55;5.43;;;4.40;;
13234;SDS011;6683;48.506;9.050;2024-01-30T08:47:57;6.37;;;4.57;;
13234;SDS011;6683;48.506;9.050;2024-01-30T08:50:59;7.17;;;4.40;;
13234;SDS011;6683;48.506;9.050;2024-01-30T08:54:01;6.03;;;4.80;;
13234;SDS011;6683;48.506;9.050;2024-01-30T08:57:06;5.90;;;4.57;;
13234;SDS011;6683;48.506;9.050;2024-01-30T09:00:08;5.07;;;4.37;;
13234;SDS011;6683;48.506;9.050;2024-01-30T09:03:11;7.03;;;5.00;;
13234;SDS011;6683;48.506;9.050;2024-01-30T09:06:13;5.87;;;4.77;;
13234;SDS011;6683;48.506;9.050;2024-01-30T09:09:15;6.67;;;4.80;;
13234;SDS011;6683;48.506;9.050;2024-01-30T09:12:19;5.67;;;4.57;;
13234;SDS011;6683;48.506;9.050;2024-01-30T09:15:21;5.60;;;4.37;;
13234;SDS011;6683;48.506;9.050;2024-01-30T09:18:23;5.63;;;4.40;;
13234;SDS011;6683;48.506;9.050;2024-01-30T09:21:25;5.70;;;4.57;;
13234;SDS011;6683;48.506;9.050;2024-01-30T09:24:27;5.70;;;4.80;;
13234;SDS011;6683;48.506;9.050;2024-01-30T09:27:31;7.50;;;5.10;;
13234;SDS011;6683;48.506;9.050;2024-01-30T09:30:33;5.80;;;4.67;;
13234;SDS011;6683;48.506;9.050;2024-01-30T09:33:35;6.03;;;4.73;;
13234;SDS011;6683;48.506;9.050;2024-01-30T09:36:37;8.80;;;5.50;;
13234;SDS011;6683;48.506;9.050;2024-01-30T09:39:39;6.77;;;4.93;;
13234;SDS011;6683;48.506;9.050;2024-01-30T09:42:42;6.23;;;4.73;;
13234;SDS011;6683;48.506;9.050;2024-01-30T09:45:47;5.77;;;4.80;;
13234;SDS011;6683;48.506;9.050;2024-01-30T09:48:51;5.83;;;4.77;;
13234;SDS011;6683;48.506;9.050;2024-01-30T09:51:53;5.57;;;4.77;;
13234;SDS011;6683;48.506;9.050;2024-01-30T09:54:57;4.80;;;4.40;;
13234;SDS011;6683;48.506;9.050;2024-01-30T09:58:03;5.73;;;4.63;;
13234;SDS011;6683;48.506;9.050;2024-01-30T10:01:05;5.07;;;4.53;;
13234;SDS011;6683;48.506;9.050;2024-01-30T10:04:07;4.80;;;4.30;;
13234;SDS011;6683;48.506;9.050;2024-01-30T10:07:09;5.20;;;4.70;;
13234;SDS011;6683;48.506;9.050;2024-01-30T10:10:12;5.90;;;4.73;;
13234;SDS011;6683;48.506;9.050;2024-01-30T10:13:16;5.20;;;4.70;;
13234;SDS011;6683;48.506;9.050;2024-01-30T10:16:18;6.57;;;5.10;;
13234;SDS011;6683;48.506;9.050;2024-01-30T10:19:20;6.47;;;4.60;;
13234;SDS011;6683;48.506;9.050;2024-01-30T10:22:22;5.37;;;4.57;;
13234;SDS011;6683;48.506;9.050;2024-01-30T10:25:25;5.43;;;4.60;;
13234;SDS011;6683;48.506;9.050;2024-01-30T10:28:28;7.30;;;5.40;;
13234;SDS011;6683;48.506;9.050;2024-01-30T10:31:31;6.73;;;5.20;;
13234;SDS011;6683;48.506;9.050;2024-01-30T10:34:33;6.03;;;5.13;;
13234;SDS011;6683;48.506;9.050;2024-01-30T10:37:35;6.03;;;5.03;;
13234;SDS011;6683;48.506;9.050;2024-01-30T10:40:38;5.90;;;5.13;;
13234;SDS011;6683;48.506;9.050;2024-01-30T10:43:42;6.63;;;5.30;;
13234;SDS011;6683;48.506;9.050;2024-01-30T10:47:00;6.37;;;4.70;;
13234;SDS011;6683;48.506;9.050;2024-01-30T10:50:09;6.57;;;4.80;;
13234;SDS011;6683;48.506;9.050;2024-01-30T10:53:12;6.83;;;5.03;;
13234;SDS011;6683;48.506;9.050;2024-01-30T10:56:15;6.47;;;4.77;;
13234;SDS011;6683;48.506;9.050;2024-01-30T10:59:19;5.30;;;4.80;;
13234;SDS011;6683;48.506;9.050;2024-01-30T11:02:24;6.77;;;5.40;;
13234;SDS011;6683;48.506;9.050;2024-01-30T11:05:27;5.63;;;5.13;;
13234;SDS011;6683;48.506;9.050;2024-01-30T11:08:31;5.80;;;5.00;;
13234;SDS011;6683;48.506;9.050;2024-01-30T11:11:47;6.43;;;5.27;;
13234;SDS011;6683;48.506;9.050;2024-01-30T11:15:02;6.90;;;5.43;;
13234;SDS011;6683;48.506;9.050;2024-01-30T11:18:06;6.13;;;4.97;;
13234;SDS011;6683;48.506;9.050;2024-01-30T11:21:08;5.50;;;4.83;;
13234;SDS011;6683;48.506;9.050;2024-01-30T11:24:14;5.57;;;4.97;;
13234;SDS011;6683;48.506;9.050;2024-01-30T11:27:16;6.03;;;4.77;;
13234;SDS011;6683;48.506;9.050;2024-01-30T11:30:23;6.10;;;5.50;;
13234;SDS011;6683;48.506;9.050;2024-01-30T11:33:27;6.97;;;5.33;;
13234;SDS011;6683;48.506;9.050;2024-01-30T11:36:31;6.23;;;5.50;;
13234;SDS011;6683;48.506;9.050;2024-01-30T11:39:37;6.07;;;5.40;;
13234;SDS011;6683;48.506;9.050;2024-01-30T11:42:41;6.67;;;5.33;;
13234;SDS011;6683;48.506;9.050;2024-01-30T11:45:46;7.60;;;5.70;;
13234;SDS011;6683;48.506;9.050;2024-01-30T11:48:48;6.17;;;5.57;;
13234;SDS011;6683;48.506;9.050;2024-01-30T11:51:50;6.43;;;5.80;;
13234;SDS011;6683;48.506;9.050;2024-01-30T11:54:54;7.10;;;6.20;;
13234;SDS011;6683;48.506;9.050;2024-01-30T11:57:56;6.57;;;5.43;;
13234;SDS011;6683;48.506;9.050;2024-01-30T12:01:00;6.23;;;5.33;;
13234;SDS011;6683;48.506;9.050;2024-01-30T12:04:02;7.47;;;5.83;;
13234;SDS011;6683;48.506;9.050;2024-01-30T12:07:08;6.33;;;5.47;;
13234;SDS011;6683;48.506;9.050;2024-01-30T12:10:10;6.43;;;5.70;;
13234;SDS011;6683;48.506;9.050;2024-01-30T12:13:14;6.57;;;5.93;;
13234;SDS011;6683;48.506;9.050;2024-01-30T12:16:18;7.67;;;5.77;;
13234;SDS011;6683;48.506;9.050;2024-01-30T12:19:23;11.27;;;5.57;;
13234;SDS011;6683;48.506;9.050;2024-01-30T12:22:26;6.63;;;5.87;;
13234;SDS011;6683;48.506;9.050;2024-01-30T12:25:28;6.20;;;5.60;;
13234;SDS011;6683;48.506;9.050;2024-01-30T12:28:31;7.30;;;5.83;;
13234;SDS011;6683;48.506;9.050;2024-01-30T12:31:35;5.97;;;5.30;;
13234;SDS011;6683;48.506;9.050;2024-01-30T12:34:40;6.13;;;5.23;;
13234;SDS011;6683;48.506;9.050;2024-01-30T12:37:43;25.10;;;15.07;;
13234;SDS011;6683;48.506;9.050;2024-01-30T12:40:46;63.63;;;39.03;;
13234;SDS011;6683;48.506;9.050;2024-01-30T12:43:48;61.13;;;37.70;;
13234;SDS011;6683;48.506;9.050;2024-01-30T12:46:51;37.00;;;24.60;;
13234;SDS011;6683;48.506;9.050;2024-01-30T12:49:53;25.50;;;17.47;;
13234;SDS011;6683;48.506;9.050;2024-01-30T12:52:56;14.97;;;11.40;;
13234;SDS011;6683;48.506;9.050;2024-01-30T12:55:58;13.63;;;8.33;;
13234;SDS011;6683;48.506;9.050;2024-01-30T12:59:00;8.03;;;6.87;;
13234;SDS011;6683;48.506;9.050;2024-01-30T13:02:04;8.23;;;6.80;;
13234;SDS011;6683;48.506;9.050;2024-01-30T13:05:08;7.60;;;5.90;;
13234;SDS011;6683;48.506;9.050;2024-01-30T13:08:11;7.63;;;6.67;;
13234;SDS011;6683;48.506;9.050;2024-01-30T13:11:13;9.87;;;6.70;;
13234;SDS011;6683;48.506;9.050;2024-01-30T13:14:15;7.20;;;6.07;;
13234;SDS011;6683;48.506;9.050;2024-01-30T13:17:18;7.50;;;5.77;;
13234;SDS011;6683;48.506;9.050;2024-01-30T13:20:20;9.53;;;5.73;;
13234;SDS011;6683;48.506;9.050;2024-01-30T13:23:22;8.93;;;6.07;;
13234;SDS011;6683;48.506;9.050;2024-01-30T13:26:24;9.07;;;6.33;;
13234;SDS011;6683;48.506;9.050;2024-01-30T13:29:27;8.77;;;5.80;;
13234;SDS011;6683;48.506;9.050;2024-01-30T13:32:30;10.07;;;6.63;;
13234;SDS011;6683;48.506;9.050;2024-01-30T13:35:32;6.93;;;6.17;;
13234;SDS011;6683;48.506;9.050;2024-01-30T13:38:34;8.13;;;6.13;;
13234;SDS011;6683;48.506;9.050;2024-01-30T13:41:36;7.47;;;6.60;;
13234;SDS011;6683;48.506;9.050;2024-01-30T13:44:38;9.70;;;6.13;;
13234;SDS011;6683;48.506;9.050;2024-01-30T13:47:42;10.43;;;5.93;;
13234;SDS011;6683;48.506;9.050;2024-01-30T13:50:44;10.33;;;6.03;;
13234;SDS011;6683;48.506;9.050;2024-01-30T13:53:46;9.53;;;6.17;;
13234;SDS011;6683;48.506;9.050;2024-01-30T13:56:50;7.87;;;5.53;;
13234;SDS011;6683;48.506;9.050;2024-01-30T13:59:52;8.83;;;7.00;;
13234;SDS011;6683;48.506;9.050;2024-01-30T14:02:56;7.10;;;5.90;;
13234;SDS011;6683;48.506;9.050;2024-01-30T14:05:59;8.90;;;5.63;;
13234;SDS011;6683;48.506;9.050;2024-01-30T14:09:01;9.87;;;6.90;;
13234;SDS011;6683;48.506;9.050;2024-01-30T14:12:04;13.40;;;6.57;;
13234;SDS011;6683;48.506;9.050;2024-01-30T14:15:07;12.00;;;6.43;;
13234;SDS011;6683;48.506;9.050;2024-01-30T14:18:12;9.40;;;5.87;;
13234;SDS011;6683;48.506;9.050;2024-01-30T14:21:14;11.17;;;6.40;;
13234;SDS011;6683;48.506;9.050;2024-01-30T14:24:16;6.90;;;5.97;;
13234;SDS011;6683;48.506;9.050;2024-01-30T14:27:18;9.90;;;6.37;;
13234;SDS011;6683;48.506;9.050;2024-01-30T14:30:20;10.07;;;6.80;;
13234;SDS011;6683;48.506;9.050;2024-01-30T14:33:24;10.40;;;6.80;;
13234;SDS011;6683;48.506;9.050;2024-01-30T14:36:26;13.47;;;7.10;;
13234;SDS011;6683;48.506;9.050;2024-01-30T14:39:28;9.33;;;6.80;;
13234;SDS011;6683;48.506;9.050;2024-01-30T14:42:30;9.50;;;6.73;;
13234;SDS011;6683;48.506;9.050;2024-01-30T14:45:33;11.00;;;6.90;;
13234;SDS011;6683;48.506;9.050;2024-01-30T14:48:36;7.40;;;6.20;;
13234;SDS011;6683;48.506;9.050;2024-01-30T14:51:38;8.33;;;5.67;;
13234;SDS011;6683;48.506;9.050;2024-01-30T14:54:40;11.57;;;5.73;;
13234;SDS011;6683;48.506;9.050;2024-01-30T14:57:43;9.07;;;5.90;;
13234;SDS011;6683;48.506;9.050;2024-01-30T15:00:46;8.23;;;5.97;;
13234;SDS011;6683;48.506;9.050;2024-01-30T15:03:49;11.17;;;6.30;;
13234;SDS011;6683;48.506;9.050;2024-01-30T15:06:52;13.70;;;6.73;;
13234;SDS011;6683;48.506;9.050;2024-01-30T15:09:55;9.60;;;6.10;;
13234;SDS011;6683;48.506;9.050;2024-01-30T15:12:57;8.83;;;6.13;;
13234;SDS011;6683;48.506;9.050;2024-01-30T15:15:59;7.13;;;5.70;;
13234;SDS011;6683;48.506;9.050;2024-01-30T15:19:04;10.60;;;6.03;;
13234;SDS011;6683;48.506;9.050;2024-01-30T15:22:06;9.67;;;6.37;;
13234;SDS011;6683;48.506;9.050;2024-01-30T15:25:08;10.30;;;5.80;;
13234;SDS011;6683;48.506;9.050;2024-01-30T15:28:10;8.90;;;6.17;;
13234;SDS011;6683;48.506;9.050;2024-01-30T15:31:14;10.13;;;6.63;;
13234;SDS011;6683;48.506;9.050;2024-01-30T15:34:18;10.13;;;6.23;;
13234;SDS011;6683;48.506;9.050;2024-01-30T15:37:20;9.50;;;7.10;;
13234;SDS011;6683;48.506;9.050;2024-01-30T15:40:23;11.70;;;6.93;;
13234;SDS011;6683;48.506;9.050;2024-01-30T15:43:25;10.57;;;6.60;;
13234;SDS011;6683;48.506;9.050;2024-01-30T15:46:27;11.07;;;6.93;;
13234;SDS011;6683;48.506;9.050;2024-01-30T15:49:30;14.47;;;7.70;;
13234;SDS011;6683;48.506;9.050;2024-01-30T15:52:32;9.57;;;6.27;;
13234;SDS011;6683;48.506;9.050;2024-01-30T15:55:34;11.00;;;6.93;;
13234;SDS011;6683;48.506;9.050;2024-01-30T15:58:36;14.30;;;7.30;;
13234;SDS011;6683;48.506;9.050;2024-01-30T16:01:38;8.47;;;6.13;;
13234;SDS011;6683;48.506;9.050;2024-01-30T16:04:43;10.10;;;6.77;;
13234;SDS011;6683;48.506;9.050;2024-01-30T16:07:45;8.57;;;6.70;;
13234;SDS011;6683;48.506;9.050;2024-01-30T16:10:47;9.03;;;6.83;;
13234;SDS011;6683;48.506;9.050;2024-01-30T16:13:49;8.80;;;6.57;;
13234;SDS011;6683;48.506;9.050;2024-01-30T16:16:52;8.10;;;6.53;;
13234;SDS011;6683;48.506;9.050;2024-01-30T16:19:55;8.67;;;6.13;;
13234;SDS011;6683;48.506;9.050;2024-01-30T16:22:57;9.77;;;6.30;;
13234;SDS011;6683;48.506;9.050;2024-01-30T16:26:00;7.03;;;5.20;;
13234;SDS011;6683;48.506;9.050;2024-01-30T16:29:02;10.00;;;5.60;;
13234;SDS011;6683;48.506;9.050;2024-01-30T16:32:04;8.63;;;6.13;;
13234;SDS011;6683;48.506;9.050;2024-01-30T16:35:08;10.90;;;8.00;;
13234;SDS011;6683;48.506;9.050;2024-01-30T16:38:10;10.90;;;8.47;;
13234;SDS011;6683;48.506;9.050;2024-01-30T16:41:12;12.10;;;9.03;;
13234;SDS011;6683;48.506;9.050;2024-01-30T16:44:14;10.13;;;7.80;;
13234;SDS011;6683;48.506;9.050;2024-01-30T16:47:16;15.23;;;8.37;;
13234;SDS011;6683;48.506;9.050;2024-01-30T16:50:20;13.33;;;8.00;;
13234;SDS011;6683;48.506;9.050;2024-01-30T16:53:22;14.00;;;7.90;;
13234;SDS011;6683;48.506;9.050;2024-01-30T16:56:24;12.33;;;8.37;;
13234;SDS011;6683;48.506;9.050;2024-01-30T16:59:26;15.17;;;7.47;;
13234;SDS011;6683;48.506;9.050;2024-01-30T17:02:28;10.50;;;6.90;;
13234;SDS011;6683;48.506;9.050;2024-01-30T17:05:32;9.57;;;6.47;;
13234;SDS011;6683;48.506;9.050;2024-01-30T17:08:34;8.67;;;6.27;;
13234;SDS011;6683;48.506;9.050;2024-01-30T17:11:36;13.33;;;7.67;;
13234;SDS011;6683;48.506;9.050;2024-01-30T17:14:39;12.53;;;7.73;;
13234;SDS011;6683;48.506;9.050;2024-01-30T17:17:41;9.93;;;6.80;;
13234;SDS011;6683;48.506;9.050;2024-01-30T17:20:47;9.77;;;6.63;;
13234;SDS011;6683;48.506;9.050;2024-01-30T17:23:49;9.33;;;6.97;;
13234;SDS011;6683;48.506;9.050;2024-01-30T17:26:51;8.50;;;7.00;;
13234;SDS011;6683;48.506;9.050;2024-01-30T17:29:53;8.83;;;6.50;;
13234;SDS011;6683;48.506;9.050;2024-01-30T17:32:55;10.97;;;6.53;;
13234;SDS011;6683;48.506;9.050;2024-01-30T17:36:00;9.00;;;7.00;;
13234;SDS011;6683;48.506;9.050;2024-01-30T17:39:04;11.20;;;6.50;;
13234;SDS011;6683;48.506;9.050;2024-01-30T17:42:07;8.67;;;6.17;;
13234;SDS011;6683;48.506;9.050;2024-01-30T17:45:09;9.50;;;6.23;;
13234;SDS011;6683;48.506;9.050;2024-01-30T17:48:12;9.70;;;6.47;;
13234;SDS011;6683;48.506;9.050;2024-01-30T17:51:15;6.90;;;5.37;;
13234;SDS011;6683;48.506;9.050;2024-01-30T17:54:17;6.90;;;5.40;;
13234;SDS011;6683;48.506;9.050;2024-01-30T17:57:20;9.07;;;5.33;;
13234;SDS011;6683;48.506;9.050;2024-01-30T18:00:22;6.33;;;4.93;;
13234;SDS011;6683;48.506;9.050;2024-01-30T18:03:25;7.20;;;4.90;;
13234;SDS011;6683;48.506;9.050;2024-01-30T18:06:28;8.73;;;5.07;;
13234;SDS011;6683;48.506;9.050;2024-01-30T18:09:30;7.47;;;4.37;;
13234;SDS011;6683;48.506;9.050;2024-01-30T18:12:33;5.53;;;4.27;;
13234;SDS011;6683;48.506;9.050;2024-01-30T18:15:35;4.03;;;3.40;;
13234;SDS011;6683;48.506;9.050;2024-01-30T18:18:37;8.33;;;3.93;;
13234;SDS011;6683;48.506;9.050;2024-01-30T18:21:41;4.03;;;3.60;;
13234;SDS011;6683;48.506;9.050;2024-01-30T18:24:43;4.40;;;3.20;;
13234;SDS011;6683;48.506;9.050;2024-01-30T18:27:45;4.80;;;3.40;;
13234;SDS011;6683;48.506;9.050;2024-01-30T18:30:47;5.10;;;3.40;;
13234;SDS011;6683;48.506;9.050;2024-01-30T18:33:49;3.83;;;3.20;;
13234;SDS011;6683;48.506;9.050;2024-01-30T18:36:55;3.70;;;2.70;;